Shandong Fu En — VRQG6 — position and weather

sailwx.info

Track history (hours):
 
Tides and Currents Weather Stations Pressure Air Temp Water Temp Dewpoint Dewpoint Depression Visibility Wind Speed Wind Dir Waves Ship Positions

Shandong Fu En

Last reported at 2018-May-23 00:09 UTC. Time now 2018-Jun-24 10:51 UTC.
Position N 31°25' E 032°18'.
Warning: this ship's position is 32 days out of date.

Length 229 m; draft 13.8 m.

Type: Cargo ship. MMSI: 477692100.

Date/timePositionNaut miles runAvg speedWind from/ knotsBaromVisibWave heightAir tempDewpointWater temp
2018-May-23 00:09N 31°25' E 032°18'0 0.0
2018-May-23 00:00N 31°25' E 032°18'0 0.0
2018-May-22 23:24N 31°25' E 032°18'  
2018-May-19 11:07N 36°32' E 014°17'112.3
2018-May-19 11:00N 36°32' E 014°16'612.6
2018-May-19 10:30N 36°34' E 014°08'713.2
2018-May-19 10:00N 36°36' E 014°00'713.3
2018-May-19 09:30N 36°38' E 013°52'713.2
2018-May-19 09:00N 36°39' E 013°44'612.9
2018-May-19 08:30N 36°41' E 013°37'612.9
2018-May-19 08:00N 36°43' E 013°29'  
2018-May-16 04:22N 36°01' W 005°11'412.5
2018-May-16 04:00N 36°01' W 005°17'611.9
2018-May-16 03:30N 36°04' W 005°23'2 3.7
2018-May-16 02:55N 36°06' W 005°24'0 0.2
2018-May-16 02:28N 36°06' W 005°25'0 0.2
2018-May-16 01:55N 36°06' W 005°24'0 0.1
2018-May-16 01:28N 36°06' W 005°24'0 0.2
2018-May-16 00:58N 36°06' W 005°25'0 0.2
2018-May-16 00:25N 36°06' W 005°25'0 0.2
2018-May-15 23:58N 36°06' W 005°25'0 0.1
2018-May-15 23:25N 36°06' W 005°25'0 0.1
2018-May-15 22:58N 36°06' W 005°25'0 0.1
2018-May-15 22:25N 36°06' W 005°25'0 0.0
2018-May-15 21:55N 36°06' W 005°24'0 0.0
2018-May-15 21:28N 36°06' W 005°24'0 0.0
2018-May-15 20:58N 36°06' W 005°24'0 0.0
2018-May-15 20:28N 36°06' W 005°24'0 0.0
2018-May-15 19:55N 36°06' W 005°25'0 0.1
2018-May-15 19:22N 36°06' W 005°25'0 0.1
2018-May-15 18:58N 36°06' W 005°25'0 0.1
2018-May-15 18:25N 36°06' W 005°25'0 0.0
2018-May-15 17:58N 36°06' W 005°25'0 0.2
2018-May-15 17:30N 36°06' W 005°25'2 3.5
2018-May-15 16:50N 36°04' W 005°23'3 9.2
2018-May-15 16:30N 36°01' W 005°22'510.0
2018-May-15 16:01N 35°58' W 005°27'3111.7
2018-May-15 13:23N 35°54' W 006°05'511.7
2018-May-15 13:00N 35°54' W 006°10'611.8
2018-May-15 12:31N 35°54' W 006°17'6411.7
2018-May-15 07:01N 35°53' W 007°37'611.2
2018-May-15 06:30N 35°52' W 007°44'611.1
2018-May-15 06:00N 35°52' W 007°51'510.7
2018-May-15 05:30N 35°52' W 007°57'510.6
2018-May-15 04:59N 35°52' W 008°04'510.8
2018-May-15 04:30N 35°52' W 008°11'1410.8
2018-May-15 03:11N 35°51' W 008°28'67 9.6
2018-May-14 20:12N 35°56' W 009°51'2 9.9
2018-May-14 19:59N 35°57' W 009°53'510.3
2018-May-14 19:28N 35°58' W 009°60'610.3
2018-May-14 18:52N 35°58' W 010°07'610.3
2018-May-14 18:19N 35°59' W 010°14'4010.2
2018-May-14 14:23N 36°05' W 011°04'  
Track history (hours):
 
Tides and Currents Weather Stations Pressure Air Temp Water Temp Dewpoint Dewpoint Depression Visibility Wind Speed Wind Dir Waves Ship Positions

Shandong Fu En

Last reported at 2018-May-23 00:09 UTC. Time now 2018-Jun-24 10:51 UTC.
Position N 31°25' E 032°18'.
Warning: this ship's position is 32 days out of date.

Length 229 m; draft 13.8 m.

Type: Cargo ship. MMSI: 477692100.

Date/timePositionNaut miles runAvg speedWind from/ knotsBaromVisibWave heightAir tempDewpointWater temp
2018-May-23 00:09N 31°25' E 032°18'0 0.0
2018-May-23 00:00N 31°25' E 032°18'0 0.0
2018-May-22 23:24N 31°25' E 032°18'  
2018-May-19 11:07N 36°32' E 014°17'112.3
2018-May-19 11:00N 36°32' E 014°16'612.6
2018-May-19 10:30N 36°34' E 014°08'713.2
2018-May-19 10:00N 36°36' E 014°00'713.3
2018-May-19 09:30N 36°38' E 013°52'713.2
2018-May-19 09:00N 36°39' E 013°44'612.9
2018-May-19 08:30N 36°41' E 013°37'612.9
2018-May-19 08:00N 36°43' E 013°29'  
2018-May-16 04:22N 36°01' W 005°11'412.5
2018-May-16 04:00N 36°01' W 005°17'611.9
2018-May-16 03:30N 36°04' W 005°23'2 3.7
2018-May-16 02:55N 36°06' W 005°24'0 0.2
2018-May-16 02:28N 36°06' W 005°25'0 0.2
2018-May-16 01:55N 36°06' W 005°24'0 0.1
2018-May-16 01:28N 36°06' W 005°24'0 0.2
2018-May-16 00:58N 36°06' W 005°25'0 0.2
2018-May-16 00:25N 36°06' W 005°25'0 0.2
2018-May-15 23:58N 36°06' W 005°25'0 0.1
2018-May-15 23:25N 36°06' W 005°25'0 0.1
2018-May-15 22:58N 36°06' W 005°25'0 0.1
2018-May-15 22:25N 36°06' W 005°25'0 0.0
2018-May-15 21:55N 36°06' W 005°24'0 0.0
2018-May-15 21:28N 36°06' W 005°24'0 0.0
2018-May-15 20:58N 36°06' W 005°24'0 0.0
2018-May-15 20:28N 36°06' W 005°24'0 0.0
2018-May-15 19:55N 36°06' W 005°25'0 0.1
2018-May-15 19:22N 36°06' W 005°25'0 0.1
2018-May-15 18:58N 36°06' W 005°25'0 0.1
2018-May-15 18:25N 36°06' W 005°25'0 0.0
2018-May-15 17:58N 36°06' W 005°25'0 0.2
2018-May-15 17:30N 36°06' W 005°25'2 3.5
2018-May-15 16:50N 36°04' W 005°23'3 9.2
2018-May-15 16:30N 36°01' W 005°22'510.0
2018-May-15 16:01N 35°58' W 005°27'3111.7
2018-May-15 13:23N 35°54' W 006°05'511.7
2018-May-15 13:00N 35°54' W 006°10'611.8
2018-May-15 12:31N 35°54' W 006°17'6411.7
2018-May-15 07:01N 35°53' W 007°37'611.2
2018-May-15 06:30N 35°52' W 007°44'611.1
2018-May-15 06:00N 35°52' W 007°51'510.7
2018-May-15 05:30N 35°52' W 007°57'510.6
2018-May-15 04:59N 35°52' W 008°04'510.8
2018-May-15 04:30N 35°52' W 008°11'1410.8
2018-May-15 03:11N 35°51' W 008°28'67 9.6
2018-May-14 20:12N 35°56' W 009°51'2 9.9
2018-May-14 19:59N 35°57' W 009°53'510.3
2018-May-14 19:28N 35°58' W 009°60'610.3
2018-May-14 18:52N 35°58' W 010°07'610.3
2018-May-14 18:19N 35°59' W 010°14'4010.2
2018-May-14 14:23N 36°05' W 011°04'  

Dump ship's entire track history